Aeroporto :
LOGIN :

Iscrizione | Disclaimer

   EN    FR    IT 

 










Sommario :    VFR   VFR Marginale   IFR   IFR Intensivo   IFR Molto Intensivo
Visibilità : 
Base nubi : 
>= 8 km
>= 3000ft
5 / 8 km
1000 / 3000 ft
1500m / 5 km
500 / 1000 ft
800 / 1500m
200 / 500 ft
< 800m
< 200 ft
Simboli :   Temporali  Nebbia  Neve Forte  Precipitazioni Forti  Vento > 20 kt
SIGMETs :   Varie  Temporali  Ghiacco  Turbolenza  Onda orograficha  Ceneri Vulcaniche






- Altitudine del aeroporto : 102 ft
- Codice IATA : CNG


LFBG - Cognac

ULTIMO METAR :
  • 200730Z AUTO 11002KT CAVOK 00/M01 Q1010 NOSIG

METARs OBSOLETI :
  • 200700Z AUTO 06005KT 9000 NSC 00/M00 Q1010 TEMPO 3000 BR
  • 200630Z AUTO 09007KT 9000 NSC 00/M00 Q1010 TEMPO 3000 BR
  • 200600Z AUTO 09005KT 9000 NSC M00/M01 Q1010
  • 200530Z AUTO 08009KT 9000 NSC 00/M00 Q1011
  • 200500Z AUTO 08005KT 8000 NSC M00/M01 Q1011

TAF AMD TAF LFBG
Valido dal 20 a 06 ore il 21 a 03 ore UTC


200555Z 2006/2103 09007KT CAVOK
PROB30
TEMPO 2006/2008 3000 BR



MetMap, La meteo Aeronautica in un colpo d'occhio ! - Copyright ORBIFLY Dicembre 2007 - Disclaimer

ORBIFLY MET'MAP TEAM :

Programmazione e sviluppo : Alexandra Zaïnal
Concezione e sviluppo : Baudouin d'Aumeries
Co-Programmazione e sviluppo : Marc-Olivier Méhu
Supporto tecnico e logistico : Manuel Goepfert
Aiuto per la traduzione : Arnaldo La Scala

Contatto : metmap@orbifly.com




FONTI E CREDITI :

   NOAA